Terminal Aerodrome Forecast
Issued by NWS

Home | Current Version | Previous Version | Text Only | Print | Product List | Glossary On
Versions: 1 2 3 4 5 6 7 8 9 10 11 12 13 14 15
000
FTPA31 PHFO 210520
TAFHNY
TAF
PHNY 210520Z 2106/2206 05017G27KT P6SM SCT017 SCT025
     FM212000 05018G28KT P6SM SCT017 SCT025=

USA.gov is the U.S. government's official web portal to all federal, state and local government web resources and services.